sensor_id;sensor_type;location;lat;lon;timestamp;P1;durP1;ratioP1;P2;durP2;ratioP2
47737;SDS011;33502;47.182;27.506;2023-02-22T00:00:40;7.00;;;3.15;;
47737;SDS011;33502;47.182;27.506;2023-02-22T00:05:39;4.30;;;3.22;;
47737;SDS011;33502;47.182;27.506;2023-02-22T00:08:09;5.72;;;3.25;;
47737;SDS011;33502;47.182;27.506;2023-02-22T00:10:35;5.78;;;3.40;;
47737;SDS011;33502;47.182;27.506;2023-02-22T00:13:03;6.63;;;3.05;;
47737;SDS011;33502;47.182;27.506;2023-02-22T00:15:31;5.32;;;3.28;;
47737;SDS011;33502;47.182;27.506;2023-02-22T00:17:58;5.53;;;3.63;;
47737;SDS011;33502;47.182;27.506;2023-02-22T00:20:24;11.13;;;3.70;;
47737;SDS011;33502;47.182;27.506;2023-02-22T00:22:50;6.70;;;3.10;;
47737;SDS011;33502;47.182;27.506;2023-02-22T00:25:17;7.82;;;3.42;;
47737;SDS011;33502;47.182;27.506;2023-02-22T00:27:45;7.75;;;3.30;;
47737;SDS011;33502;47.182;27.506;2023-02-22T00:30:20;9.48;;;3.35;;
47737;SDS011;33502;47.182;27.506;2023-02-22T00:32:48;5.80;;;2.85;;
47737;SDS011;33502;47.182;27.506;2023-02-22T00:35:15;7.32;;;3.13;;
47737;SDS011;33502;47.182;27.506;2023-02-22T00:37:45;5.68;;;2.90;;
47737;SDS011;33502;47.182;27.506;2023-02-22T00:40:15;5.45;;;2.90;;
47737;SDS011;33502;47.182;27.506;2023-02-22T00:42:43;8.95;;;2.75;;
47737;SDS011;33502;47.182;27.506;2023-02-22T00:45:12;4.70;;;2.53;;
47737;SDS011;33502;47.182;27.506;2023-02-22T00:47:44;6.38;;;2.95;;
47737;SDS011;33502;47.182;27.506;2023-02-22T00:50:10;5.55;;;2.67;;
47737;SDS011;33502;47.182;27.506;2023-02-22T00:52:36;4.80;;;2.60;;
47737;SDS011;33502;47.182;27.506;2023-02-22T00:55:03;5.38;;;2.67;;
47737;SDS011;33502;47.182;27.506;2023-02-22T00:57:31;7.18;;;2.90;;
47737;SDS011;33502;47.182;27.506;2023-02-22T01:00:00;3.55;;;2.10;;
47737;SDS011;33502;47.182;27.506;2023-02-22T01:02:41;10.32;;;3.15;;
47737;SDS011;33502;47.182;27.506;2023-02-22T01:05:08;5.28;;;2.42;;
47737;SDS011;33502;47.182;27.506;2023-02-22T01:07:37;5.60;;;2.22;;
47737;SDS011;33502;47.182;27.506;2023-02-22T01:10:04;8.57;;;2.90;;
47737;SDS011;33502;47.182;27.506;2023-02-22T01:12:33;6.90;;;2.92;;
47737;SDS011;33502;47.182;27.506;2023-02-22T01:14:59;8.38;;;2.78;;
47737;SDS011;33502;47.182;27.506;2023-02-22T01:17:28;7.28;;;2.50;;
47737;SDS011;33502;47.182;27.506;2023-02-22T01:19:54;6.90;;;3.28;;
47737;SDS011;33502;47.182;27.506;2023-02-22T01:22:21;4.40;;;2.80;;
47737;SDS011;33502;47.182;27.506;2023-02-22T01:24:48;6.38;;;2.60;;
47737;SDS011;33502;47.182;27.506;2023-02-22T01:27:15;7.60;;;2.67;;
47737;SDS011;33502;47.182;27.506;2023-02-22T01:29:42;9.27;;;2.83;;
47737;SDS011;33502;47.182;27.506;2023-02-22T01:32:09;8.05;;;2.50;;
47737;SDS011;33502;47.182;27.506;2023-02-22T01:34:36;7.90;;;2.45;;
47737;SDS011;33502;47.182;27.506;2023-02-22T01:37:03;5.50;;;2.40;;
47737;SDS011;33502;47.182;27.506;2023-02-22T01:39:30;6.50;;;2.55;;
47737;SDS011;33502;47.182;27.506;2023-02-22T01:41:56;6.55;;;2.70;;
47737;SDS011;33502;47.182;27.506;2023-02-22T01:46:52;7.53;;;2.00;;
47737;SDS011;33502;47.182;27.506;2023-02-22T01:49:20;8.43;;;2.30;;
47737;SDS011;33502;47.182;27.506;2023-02-22T01:51:50;7.20;;;2.30;;
47737;SDS011;33502;47.182;27.506;2023-02-22T01:54:30;7.55;;;2.13;;
47737;SDS011;33502;47.182;27.506;2023-02-22T01:59:27;9.00;;;2.58;;
47737;SDS011;33502;47.182;27.506;2023-02-22T02:01:57;4.68;;;2.00;;
47737;SDS011;33502;47.182;27.506;2023-02-22T02:04:24;8.30;;;2.63;;
47737;SDS011;33502;47.182;27.506;2023-02-22T02:06:53;4.25;;;2.50;;
47737;SDS011;33502;47.182;27.506;2023-02-22T02:09:36;6.38;;;2.75;;
47737;SDS011;33502;47.182;27.506;2023-02-22T02:12:09;7.28;;;2.78;;
47737;SDS011;33502;47.182;27.506;2023-02-22T02:14:37;8.23;;;2.90;;
47737;SDS011;33502;47.182;27.506;2023-02-22T02:17:09;9.80;;;3.25;;
47737;SDS011;33502;47.182;27.506;2023-02-22T02:22:46;9.60;;;2.60;;
47737;SDS011;33502;47.182;27.506;2023-02-22T02:25:35;9.05;;;2.70;;
47737;SDS011;33502;47.182;27.506;2023-02-22T02:37:11;7.85;;;3.20;;
47737;SDS011;33502;47.182;27.506;2023-02-22T02:39:50;9.02;;;3.08;;
47737;SDS011;33502;47.182;27.506;2023-02-22T02:42:28;7.82;;;3.80;;
47737;SDS011;33502;47.182;27.506;2023-02-22T02:45:04;9.23;;;3.30;;
47737;SDS011;33502;47.182;27.506;2023-02-22T02:47:36;9.82;;;4.28;;
47737;SDS011;33502;47.182;27.506;2023-02-22T02:50:13;11.63;;;3.42;;
47737;SDS011;33502;47.182;27.506;2023-02-22T02:52:44;7.45;;;3.33;;
47737;SDS011;33502;47.182;27.506;2023-02-22T02:55:12;13.10;;;3.75;;
47737;SDS011;33502;47.182;27.506;2023-02-22T02:57:40;10.55;;;4.05;;
47737;SDS011;33502;47.182;27.506;2023-02-22T03:00:06;12.95;;;4.20;;
47737;SDS011;33502;47.182;27.506;2023-02-22T03:02:51;11.40;;;4.78;;
47737;SDS011;33502;47.182;27.506;2023-02-22T03:13:01;12.02;;;4.65;;
47737;SDS011;33502;47.182;27.506;2023-02-22T03:21:23;11.98;;;3.58;;
47737;SDS011;33502;47.182;27.506;2023-02-22T03:23:54;8.20;;;3.10;;
47737;SDS011;33502;47.182;27.506;2023-02-22T03:26:32;12.35;;;4.38;;
47737;SDS011;33502;47.182;27.506;2023-02-22T03:29:03;11.38;;;3.85;;
47737;SDS011;33502;47.182;27.506;2023-02-22T03:31:37;8.38;;;3.00;;
47737;SDS011;33502;47.182;27.506;2023-02-22T03:34:09;12.02;;;3.80;;
47737;SDS011;33502;47.182;27.506;2023-02-22T03:36:41;10.38;;;3.70;;
47737;SDS011;33502;47.182;27.506;2023-02-22T03:39:13;8.15;;;3.10;;
47737;SDS011;33502;47.182;27.506;2023-02-22T03:41:43;9.35;;;3.17;;
47737;SDS011;33502;47.182;27.506;2023-02-22T03:44:14;12.45;;;3.33;;
47737;SDS011;33502;47.182;27.506;2023-02-22T03:46:43;9.98;;;3.08;;
47737;SDS011;33502;47.182;27.506;2023-02-22T03:49:16;9.55;;;4.07;;
47737;SDS011;33502;47.182;27.506;2023-02-22T03:51:49;10.30;;;3.22;;
47737;SDS011;33502;47.182;27.506;2023-02-22T03:54:15;9.30;;;3.25;;
47737;SDS011;33502;47.182;27.506;2023-02-22T03:56:55;7.03;;;3.28;;
47737;SDS011;33502;47.182;27.506;2023-02-22T03:59:43;9.13;;;2.92;;
47737;SDS011;33502;47.182;27.506;2023-02-22T04:02:10;11.48;;;3.60;;
47737;SDS011;33502;47.182;27.506;2023-02-22T04:04:36;10.23;;;4.05;;
47737;SDS011;33502;47.182;27.506;2023-02-22T04:07:02;10.13;;;3.40;;
47737;SDS011;33502;47.182;27.506;2023-02-22T04:09:29;11.85;;;3.97;;
47737;SDS011;33502;47.182;27.506;2023-02-22T04:11:55;11.38;;;3.42;;
47737;SDS011;33502;47.182;27.506;2023-02-22T04:14:21;14.93;;;3.72;;
47737;SDS011;33502;47.182;27.506;2023-02-22T04:16:46;10.35;;;4.15;;
47737;SDS011;33502;47.182;27.506;2023-02-22T04:19:12;11.55;;;3.58;;
47737;SDS011;33502;47.182;27.506;2023-02-22T04:21:38;11.43;;;3.10;;
47737;SDS011;33502;47.182;27.506;2023-02-22T04:24:08;9.32;;;3.47;;
47737;SDS011;33502;47.182;27.506;2023-02-22T04:26:33;9.73;;;3.83;;
47737;SDS011;33502;47.182;27.506;2023-02-22T04:29:01;12.40;;;3.85;;
47737;SDS011;33502;47.182;27.506;2023-02-22T04:31:35;10.18;;;3.40;;
47737;SDS011;33502;47.182;27.506;2023-02-22T04:34:01;12.43;;;3.70;;
47737;SDS011;33502;47.182;27.506;2023-02-22T04:36:31;12.95;;;3.65;;
47737;SDS011;33502;47.182;27.506;2023-02-22T04:38:58;9.18;;;3.17;;
47737;SDS011;33502;47.182;27.506;2023-02-22T04:41:26;10.07;;;3.80;;
47737;SDS011;33502;47.182;27.506;2023-02-22T04:43:53;10.85;;;3.50;;
47737;SDS011;33502;47.182;27.506;2023-02-22T04:46:21;10.75;;;3.88;;
47737;SDS011;33502;47.182;27.506;2023-02-22T04:48:47;11.70;;;3.28;;
47737;SDS011;33502;47.182;27.506;2023-02-22T04:51:15;9.73;;;3.08;;
47737;SDS011;33502;47.182;27.506;2023-02-22T04:54:14;11.18;;;3.65;;
47737;SDS011;33502;47.182;27.506;2023-02-22T04:56:44;11.65;;;3.72;;
47737;SDS011;33502;47.182;27.506;2023-02-22T04:59:10;11.50;;;3.30;;
47737;SDS011;33502;47.182;27.506;2023-02-22T05:01:37;11.85;;;3.50;;
47737;SDS011;33502;47.182;27.506;2023-02-22T05:04:04;8.57;;;3.42;;
47737;SDS011;33502;47.182;27.506;2023-02-22T05:06:31;9.35;;;3.15;;
47737;SDS011;33502;47.182;27.506;2023-02-22T05:08:58;14.48;;;4.40;;
47737;SDS011;33502;47.182;27.506;2023-02-22T05:11:24;10.90;;;3.42;;
47737;SDS011;33502;47.182;27.506;2023-02-22T05:13:50;12.82;;;4.07;;
47737;SDS011;33502;47.182;27.506;2023-02-22T05:16:16;10.60;;;3.30;;
47737;SDS011;33502;47.182;27.506;2023-02-22T05:18:41;12.40;;;3.28;;
47737;SDS011;33502;47.182;27.506;2023-02-22T05:21:07;11.20;;;3.83;;
47737;SDS011;33502;47.182;27.506;2023-02-22T05:23:34;9.43;;;3.65;;
47737;SDS011;33502;47.182;27.506;2023-02-22T05:26:00;9.88;;;3.90;;
47737;SDS011;33502;47.182;27.506;2023-02-22T05:28:26;10.70;;;3.70;;
47737;SDS011;33502;47.182;27.506;2023-02-22T05:30:52;13.65;;;3.97;;
47737;SDS011;33502;47.182;27.506;2023-02-22T05:33:17;12.48;;;4.28;;
47737;SDS011;33502;47.182;27.506;2023-02-22T05:35:43;14.88;;;4.63;;
47737;SDS011;33502;47.182;27.506;2023-02-22T05:38:14;10.45;;;3.50;;
47737;SDS011;33502;47.182;27.506;2023-02-22T05:40:40;9.13;;;3.95;;
47737;SDS011;33502;47.182;27.506;2023-02-22T05:43:07;12.32;;;3.38;;
47737;SDS011;33502;47.182;27.506;2023-02-22T05:45:33;10.82;;;3.42;;
47737;SDS011;33502;47.182;27.506;2023-02-22T05:48:00;14.32;;;4.10;;
47737;SDS011;33502;47.182;27.506;2023-02-22T05:50:27;9.23;;;4.10;;
47737;SDS011;33502;47.182;27.506;2023-02-22T05:52:53;14.48;;;4.38;;
47737;SDS011;33502;47.182;27.506;2023-02-22T05:55:20;9.65;;;4.10;;
47737;SDS011;33502;47.182;27.506;2023-02-22T05:57:48;14.43;;;3.92;;
47737;SDS011;33502;47.182;27.506;2023-02-22T06:00:18;14.38;;;3.55;;
47737;SDS011;33502;47.182;27.506;2023-02-22T06:02:52;9.43;;;3.40;;
47737;SDS011;33502;47.182;27.506;2023-02-22T06:05:22;10.50;;;3.95;;
47737;SDS011;33502;47.182;27.506;2023-02-22T06:07:48;7.07;;;3.45;;
47737;SDS011;33502;47.182;27.506;2023-02-22T06:10:14;9.40;;;3.88;;
47737;SDS011;33502;47.182;27.506;2023-02-22T06:12:39;10.80;;;3.92;;
47737;SDS011;33502;47.182;27.506;2023-02-22T06:15:06;10.10;;;3.75;;
47737;SDS011;33502;47.182;27.506;2023-02-22T06:17:32;9.18;;;3.90;;
47737;SDS011;33502;47.182;27.506;2023-02-22T06:19:58;10.98;;;3.85;;
47737;SDS011;33502;47.182;27.506;2023-02-22T06:22:23;9.88;;;3.35;;
47737;SDS011;33502;47.182;27.506;2023-02-22T06:24:49;13.70;;;3.78;;
47737;SDS011;33502;47.182;27.506;2023-02-22T06:27:15;9.05;;;4.00;;
47737;SDS011;33502;47.182;27.506;2023-02-22T06:29:44;10.57;;;4.45;;
47737;SDS011;33502;47.182;27.506;2023-02-22T06:32:11;9.40;;;3.58;;
47737;SDS011;33502;47.182;27.506;2023-02-22T06:34:38;11.75;;;3.90;;
47737;SDS011;33502;47.182;27.506;2023-02-22T06:37:05;10.15;;;3.67;;
47737;SDS011;33502;47.182;27.506;2023-02-22T06:39:32;11.57;;;3.72;;
47737;SDS011;33502;47.182;27.506;2023-02-22T06:41:58;12.02;;;4.55;;
47737;SDS011;33502;47.182;27.506;2023-02-22T06:44:24;9.82;;;3.90;;
47737;SDS011;33502;47.182;27.506;2023-02-22T06:46:50;10.77;;;5.05;;
47737;SDS011;33502;47.182;27.506;2023-02-22T06:49:17;12.57;;;4.40;;
47737;SDS011;33502;47.182;27.506;2023-02-22T06:51:44;11.57;;;4.40;;
47737;SDS011;33502;47.182;27.506;2023-02-22T06:54:11;11.43;;;4.70;;
47737;SDS011;33502;47.182;27.506;2023-02-22T06:56:36;11.90;;;4.20;;
47737;SDS011;33502;47.182;27.506;2023-02-22T06:59:03;8.10;;;3.75;;
47737;SDS011;33502;47.182;27.506;2023-02-22T07:01:28;11.07;;;4.78;;
47737;SDS011;33502;47.182;27.506;2023-02-22T07:03:54;10.10;;;4.15;;
47737;SDS011;33502;47.182;27.506;2023-02-22T07:06:20;9.93;;;3.63;;
47737;SDS011;33502;47.182;27.506;2023-02-22T07:08:47;9.82;;;3.92;;
47737;SDS011;33502;47.182;27.506;2023-02-22T07:11:14;9.85;;;3.50;;
47737;SDS011;33502;47.182;27.506;2023-02-22T07:13:41;12.30;;;4.03;;
47737;SDS011;33502;47.182;27.506;2023-02-22T07:16:07;11.35;;;4.47;;
47737;SDS011;33502;47.182;27.506;2023-02-22T07:18:33;11.15;;;3.75;;
47737;SDS011;33502;47.182;27.506;2023-02-22T07:20:58;9.82;;;4.63;;
47737;SDS011;33502;47.182;27.506;2023-02-22T07:23:24;12.25;;;4.47;;
47737;SDS011;33502;47.182;27.506;2023-02-22T07:25:51;14.23;;;4.47;;
47737;SDS011;33502;47.182;27.506;2023-02-22T07:28:17;9.57;;;4.40;;
47737;SDS011;33502;47.182;27.506;2023-02-22T07:30:43;12.60;;;4.38;;
47737;SDS011;33502;47.182;27.506;2023-02-22T07:33:09;13.25;;;4.70;;
47737;SDS011;33502;47.182;27.506;2023-02-22T07:35:46;11.40;;;4.38;;
47737;SDS011;33502;47.182;27.506;2023-02-22T07:38:14;9.70;;;3.95;;
47737;SDS011;33502;47.182;27.506;2023-02-22T07:40:41;10.65;;;4.80;;
47737;SDS011;33502;47.182;27.506;2023-02-22T07:43:23;19.95;;;4.93;;
47737;SDS011;33502;47.182;27.506;2023-02-22T07:45:52;11.80;;;4.22;;
47737;SDS011;33502;47.182;27.506;2023-02-22T07:48:23;9.67;;;4.30;;
47737;SDS011;33502;47.182;27.506;2023-02-22T07:50:50;13.98;;;4.30;;
47737;SDS011;33502;47.182;27.506;2023-02-22T07:53:17;9.40;;;4.55;;
47737;SDS011;33502;47.182;27.506;2023-02-22T07:55:45;9.82;;;4.05;;
47737;SDS011;33502;47.182;27.506;2023-02-22T07:58:14;11.55;;;4.60;;
47737;SDS011;33502;47.182;27.506;2023-02-22T08:00:40;10.73;;;4.82;;
47737;SDS011;33502;47.182;27.506;2023-02-22T08:03:12;14.82;;;4.40;;
47737;SDS011;33502;47.182;27.506;2023-02-22T08:05:39;9.40;;;3.75;;
47737;SDS011;33502;47.182;27.506;2023-02-22T08:08:09;11.77;;;4.38;;
47737;SDS011;33502;47.182;27.506;2023-02-22T08:10:35;12.48;;;4.05;;
47737;SDS011;33502;47.182;27.506;2023-02-22T08:13:01;10.10;;;4.00;;
47737;SDS011;33502;47.182;27.506;2023-02-22T08:15:30;12.88;;;4.55;;
47737;SDS011;33502;47.182;27.506;2023-02-22T08:17:59;10.85;;;4.75;;
47737;SDS011;33502;47.182;27.506;2023-02-22T08:20:26;11.10;;;4.82;;
47737;SDS011;33502;47.182;27.506;2023-02-22T08:22:53;11.20;;;4.70;;
47737;SDS011;33502;47.182;27.506;2023-02-22T08:25:20;12.85;;;4.35;;
47737;SDS011;33502;47.182;27.506;2023-02-22T08:27:49;13.88;;;4.10;;
47737;SDS011;33502;47.182;27.506;2023-02-22T08:30:19;15.90;;;7.03;;
47737;SDS011;33502;47.182;27.506;2023-02-22T08:32:47;17.58;;;5.25;;
47737;SDS011;33502;47.182;27.506;2023-02-22T08:35:15;13.45;;;4.20;;
47737;SDS011;33502;47.182;27.506;2023-02-22T08:37:43;10.30;;;3.97;;
47737;SDS011;33502;47.182;27.506;2023-02-22T08:40:10;14.82;;;4.22;;
47737;SDS011;33502;47.182;27.506;2023-02-22T08:42:36;14.23;;;4.50;;
47737;SDS011;33502;47.182;27.506;2023-02-22T08:45:03;11.23;;;4.22;;
47737;SDS011;33502;47.182;27.506;2023-02-22T08:47:29;12.55;;;4.25;;
47737;SDS011;33502;47.182;27.506;2023-02-22T08:49:54;12.85;;;3.95;;
47737;SDS011;33502;47.182;27.506;2023-02-22T08:52:20;16.98;;;4.30;;
47737;SDS011;33502;47.182;27.506;2023-02-22T08:54:46;7.97;;;3.78;;
47737;SDS011;33502;47.182;27.506;2023-02-22T08:57:12;10.27;;;3.70;;
47737;SDS011;33502;47.182;27.506;2023-02-22T08:59:39;12.10;;;3.70;;
47737;SDS011;33502;47.182;27.506;2023-02-22T09:02:05;10.98;;;4.22;;
47737;SDS011;33502;47.182;27.506;2023-02-22T09:04:38;9.70;;;3.63;;
47737;SDS011;33502;47.182;27.506;2023-02-22T09:07:03;15.30;;;4.13;;
47737;SDS011;33502;47.182;27.506;2023-02-22T09:09:29;15.05;;;4.85;;
47737;SDS011;33502;47.182;27.506;2023-02-22T09:11:55;10.57;;;4.47;;
47737;SDS011;33502;47.182;27.506;2023-02-22T09:14:20;12.68;;;4.00;;
47737;SDS011;33502;47.182;27.506;2023-02-22T09:16:46;12.80;;;4.03;;
47737;SDS011;33502;47.182;27.506;2023-02-22T09:19:12;11.40;;;3.67;;
47737;SDS011;33502;47.182;27.506;2023-02-22T09:21:38;13.35;;;3.80;;
47737;SDS011;33502;47.182;27.506;2023-02-22T09:24:05;13.68;;;4.63;;
47737;SDS011;33502;47.182;27.506;2023-02-22T09:26:33;8.82;;;4.00;;
47737;SDS011;33502;47.182;27.506;2023-02-22T09:29:06;12.10;;;4.47;;
47737;SDS011;33502;47.182;27.506;2023-02-22T09:31:35;10.70;;;4.32;;
47737;SDS011;33502;47.182;27.506;2023-02-22T09:34:05;13.57;;;4.50;;
47737;SDS011;33502;47.182;27.506;2023-02-22T09:36:41;9.43;;;3.83;;
47737;SDS011;33502;47.182;27.506;2023-02-22T09:39:08;12.73;;;5.07;;
47737;SDS011;33502;47.182;27.506;2023-02-22T09:46:42;11.75;;;3.97;;
47737;SDS011;33502;47.182;27.506;2023-02-22T09:49:17;9.60;;;4.63;;
47737;SDS011;33502;47.182;27.506;2023-02-22T09:52:11;9.00;;;4.50;;
47737;SDS011;33502;47.182;27.506;2023-02-22T09:54:44;14.45;;;5.22;;
47737;SDS011;33502;47.182;27.506;2023-02-22T09:57:20;11.88;;;4.10;;
47737;SDS011;33502;47.182;27.506;2023-02-22T09:59:59;13.13;;;4.57;;
47737;SDS011;33502;47.182;27.506;2023-02-22T10:06:25;10.57;;;3.83;;
47737;SDS011;33502;47.182;27.506;2023-02-22T10:08:46;10.13;;;3.78;;
47737;SDS011;33502;47.182;27.506;2023-02-22T10:11:20;9.32;;;3.67;;
47737;SDS011;33502;47.182;27.506;2023-02-22T10:16:56;9.27;;;3.85;;
47737;SDS011;33502;47.182;27.506;2023-02-22T10:22:18;10.48;;;5.10;;
47737;SDS011;33502;47.182;27.506;2023-02-22T10:25:05;9.20;;;4.20;;
47737;SDS011;33502;47.182;27.506;2023-02-22T10:27:41;10.68;;;5.00;;
47737;SDS011;33502;47.182;27.506;2023-02-22T10:30:25;10.05;;;5.45;;
47737;SDS011;33502;47.182;27.506;2023-02-22T10:33:00;10.85;;;4.15;;
47737;SDS011;33502;47.182;27.506;2023-02-22T10:35:52;9.88;;;4.40;;
47737;SDS011;33502;47.182;27.506;2023-02-22T10:38:28;12.05;;;4.63;;
47737;SDS011;33502;47.182;27.506;2023-02-22T10:40:57;11.93;;;6.00;;
47737;SDS011;33502;47.182;27.506;2023-02-22T10:43:44;9.55;;;4.70;;
47737;SDS011;33502;47.182;27.506;2023-02-22T10:46:12;7.50;;;4.03;;
47737;SDS011;33502;47.182;27.506;2023-02-22T10:48:42;9.35;;;4.53;;
47737;SDS011;33502;47.182;27.506;2023-02-22T10:51:11;11.38;;;4.43;;
47737;SDS011;33502;47.182;27.506;2023-02-22T10:53:37;9.05;;;3.42;;
47737;SDS011;33502;47.182;27.506;2023-02-22T10:56:07;8.32;;;4.25;;
47737;SDS011;33502;47.182;27.506;2023-02-22T11:09:55;5.75;;;3.40;;
47737;SDS011;33502;47.182;27.506;2023-02-22T11:14:54;5.63;;;3.00;;
47737;SDS011;33502;47.182;27.506;2023-02-22T11:17:27;6.75;;;3.00;;
47737;SDS011;33502;47.182;27.506;2023-02-22T11:19:56;5.88;;;2.33;;
47737;SDS011;33502;47.182;27.506;2023-02-22T11:22:40;6.60;;;2.80;;
47737;SDS011;33502;47.182;27.506;2023-02-22T11:25:06;8.02;;;3.60;;
47737;SDS011;33502;47.182;27.506;2023-02-22T11:27:37;6.90;;;2.80;;
47737;SDS011;33502;47.182;27.506;2023-02-22T11:33:36;7.88;;;2.50;;
47737;SDS011;33502;47.182;27.506;2023-02-22T11:35:52;3.63;;;1.88;;
47737;SDS011;33502;47.182;27.506;2023-02-22T11:40:45;4.80;;;2.38;;
47737;SDS011;33502;47.182;27.506;2023-02-22T11:43:28;7.28;;;2.47;;
47737;SDS011;33502;47.182;27.506;2023-02-22T11:45:54;5.00;;;2.33;;
47737;SDS011;33502;47.182;27.506;2023-02-22T11:48:31;6.38;;;3.65;;
47737;SDS011;33502;47.182;27.506;2023-02-22T11:56:14;4.22;;;2.33;;
47737;SDS011;33502;47.182;27.506;2023-02-22T12:09:18;6.63;;;2.25;;
47737;SDS011;33502;47.182;27.506;2023-02-22T12:17:08;3.80;;;2.40;;
47737;SDS011;33502;47.182;27.506;2023-02-22T12:20:30;3.92;;;2.20;;
47737;SDS011;33502;47.182;27.506;2023-02-22T12:25:54;6.15;;;1.92;;
47737;SDS011;33502;47.182;27.506;2023-02-22T12:28:30;8.52;;;2.50;;
47737;SDS011;33502;47.182;27.506;2023-02-22T12:33:41;4.82;;;3.40;;
47737;SDS011;33502;47.182;27.506;2023-02-22T12:36:16;5.05;;;2.40;;
47737;SDS011;33502;47.182;27.506;2023-02-22T12:38:47;3.70;;;1.52;;
47737;SDS011;33502;47.182;27.506;2023-02-22T12:41:38;3.50;;;1.77;;
47737;SDS011;33502;47.182;27.506;2023-02-22T12:44:16;6.30;;;2.00;;
47737;SDS011;33502;47.182;27.506;2023-02-22T12:46:50;5.43;;;2.00;;
47737;SDS011;33502;47.182;27.506;2023-02-22T12:54:52;6.45;;;1.90;;
47737;SDS011;33502;47.182;27.506;2023-02-22T12:57:41;7.32;;;2.08;;
47737;SDS011;33502;47.182;27.506;2023-02-22T13:00:59;4.80;;;2.40;;
47737;SDS011;33502;47.182;27.506;2023-02-22T13:06:06;5.18;;;2.70;;
47737;SDS011;33502;47.182;27.506;2023-02-22T13:19:40;4.32;;;1.67;;
47737;SDS011;33502;47.182;27.506;2023-02-22T13:27:24;6.05;;;2.15;;
47737;SDS011;33502;47.182;27.506;2023-02-22T13:29:58;6.30;;;1.83;;
47737;SDS011;33502;47.182;27.506;2023-02-22T13:46:14;3.50;;;2.00;;
47737;SDS011;33502;47.182;27.506;2023-02-22T13:48:59;5.90;;;2.22;;
47737;SDS011;33502;47.182;27.506;2023-02-22T13:56:54;8.77;;;3.15;;
47737;SDS011;33502;47.182;27.506;2023-02-22T13:59:34;6.07;;;2.70;;
47737;SDS011;33502;47.182;27.506;2023-02-22T14:02:02;11.27;;;3.55;;
47737;SDS011;33502;47.182;27.506;2023-02-22T14:07:02;9.30;;;5.68;;
47737;SDS011;33502;47.182;27.506;2023-02-22T14:09:53;7.15;;;3.88;;
47737;SDS011;33502;47.182;27.506;2023-02-22T14:17:45;35.47;;;16.35;;
47737;SDS011;33502;47.182;27.506;2023-02-22T14:22:43;12.57;;;4.57;;
47737;SDS011;33502;47.182;27.506;2023-02-22T14:27:56;11.30;;;4.95;;
47737;SDS011;33502;47.182;27.506;2023-02-22T14:30:23;6.32;;;2.55;;
47737;SDS011;33502;47.182;27.506;2023-02-22T14:32:50;11.95;;;4.95;;
47737;SDS011;33502;47.182;27.506;2023-02-22T14:35:16;33.58;;;11.73;;
47737;SDS011;33502;47.182;27.506;2023-02-22T14:37:51;71.65;;;20.05;;
47737;SDS011;33502;47.182;27.506;2023-02-22T14:40:24;51.00;;;17.33;;
47737;SDS011;33502;47.182;27.506;2023-02-22T14:45:54;8.88;;;3.17;;
47737;SDS011;33502;47.182;27.506;2023-02-22T14:48:33;6.70;;;3.42;;
47737;SDS011;33502;47.182;27.506;2023-02-22T14:51:48;7.32;;;3.03;;
47737;SDS011;33502;47.182;27.506;2023-02-22T14:54:02;10.35;;;4.43;;
47737;SDS011;33502;47.182;27.506;2023-02-22T14:56:35;13.40;;;4.53;;
47737;SDS011;33502;47.182;27.506;2023-02-22T14:59:19;14.00;;;7.15;;
47737;SDS011;33502;47.182;27.506;2023-02-22T15:01:46;13.57;;;6.38;;
47737;SDS011;33502;47.182;27.506;2023-02-22T15:04:22;9.35;;;4.20;;
47737;SDS011;33502;47.182;27.506;2023-02-22T15:06:54;14.38;;;5.80;;
47737;SDS011;33502;47.182;27.506;2023-02-22T15:09:28;8.27;;;4.68;;
47737;SDS011;33502;47.182;27.506;2023-02-22T15:14:30;16.05;;;7.32;;
47737;SDS011;33502;47.182;27.506;2023-02-22T15:17:02;10.90;;;5.63;;
47737;SDS011;33502;47.182;27.506;2023-02-22T15:19:36;11.15;;;5.63;;
47737;SDS011;33502;47.182;27.506;2023-02-22T15:22:04;16.40;;;6.97;;
47737;SDS011;33502;47.182;27.506;2023-02-22T15:24:33;11.88;;;6.28;;
47737;SDS011;33502;47.182;27.506;2023-02-22T15:27:03;10.48;;;5.85;;
47737;SDS011;33502;47.182;27.506;2023-02-22T15:29:33;8.38;;;4.63;;
47737;SDS011;33502;47.182;27.506;2023-02-22T15:32:01;26.50;;;12.38;;
47737;SDS011;33502;47.182;27.506;2023-02-22T15:34:28;16.55;;;8.20;;
47737;SDS011;33502;47.182;27.506;2023-02-22T15:36:56;11.68;;;5.40;;
47737;SDS011;33502;47.182;27.506;2023-02-22T15:39:38;10.63;;;5.38;;
47737;SDS011;33502;47.182;27.506;2023-02-22T15:42:09;10.10;;;5.13;;
47737;SDS011;33502;47.182;27.506;2023-02-22T15:44:48;9.50;;;4.75;;
47737;SDS011;33502;47.182;27.506;2023-02-22T15:49:44;17.23;;;6.45;;
47737;SDS011;33502;47.182;27.506;2023-02-22T15:54:48;12.95;;;8.27;;
47737;SDS011;33502;47.182;27.506;2023-02-22T15:57:17;16.50;;;8.20;;
47737;SDS011;33502;47.182;27.506;2023-02-22T15:59:46;14.65;;;8.02;;
47737;SDS011;33502;47.182;27.506;2023-02-22T16:04:59;23.85;;;14.77;;
47737;SDS011;33502;47.182;27.506;2023-02-22T16:07:31;15.65;;;7.55;;
47737;SDS011;33502;47.182;27.506;2023-02-22T16:10:00;12.07;;;6.72;;
47737;SDS011;33502;47.182;27.506;2023-02-22T16:12:33;18.42;;;8.98;;
47737;SDS011;33502;47.182;27.506;2023-02-22T16:15:00;15.63;;;8.48;;
47737;SDS011;33502;47.182;27.506;2023-02-22T16:17:38;13.90;;;6.75;;
47737;SDS011;33502;47.182;27.506;2023-02-22T16:22:44;13.98;;;8.00;;
47737;SDS011;33502;47.182;27.506;2023-02-22T16:27:43;16.77;;;8.88;;
47737;SDS011;33502;47.182;27.506;2023-02-22T16:30:29;21.50;;;11.35;;
47737;SDS011;33502;47.182;27.506;2023-02-22T16:32:56;20.13;;;9.23;;
47737;SDS011;33502;47.182;27.506;2023-02-22T16:35:26;14.73;;;7.63;;
47737;SDS011;33502;47.182;27.506;2023-02-22T16:37:57;14.52;;;7.88;;
47737;SDS011;33502;47.182;27.506;2023-02-22T16:42:57;12.88;;;7.53;;
47737;SDS011;33502;47.182;27.506;2023-02-22T16:45:27;12.90;;;8.07;;
47737;SDS011;33502;47.182;27.506;2023-02-22T16:47:53;12.57;;;7.28;;
47737;SDS011;33502;47.182;27.506;2023-02-22T16:50:19;16.35;;;8.95;;
47737;SDS011;33502;47.182;27.506;2023-02-22T16:52:46;17.00;;;7.70;;
47737;SDS011;33502;47.182;27.506;2023-02-22T16:55:13;14.57;;;7.63;;
47737;SDS011;33502;47.182;27.506;2023-02-22T16:57:41;30.88;;;15.85;;
47737;SDS011;33502;47.182;27.506;2023-02-22T17:00:14;55.65;;;25.55;;
47737;SDS011;33502;47.182;27.506;2023-02-22T17:02:58;38.53;;;22.08;;
47737;SDS011;33502;47.182;27.506;2023-02-22T17:05:30;38.28;;;21.77;;
47737;SDS011;33502;47.182;27.506;2023-02-22T17:08:00;29.80;;;17.35;;
47737;SDS011;33502;47.182;27.506;2023-02-22T17:10:26;27.80;;;14.93;;
47737;SDS011;33502;47.182;27.506;2023-02-22T17:12:53;23.20;;;14.13;;
47737;SDS011;33502;47.182;27.506;2023-02-22T17:15:21;22.35;;;12.93;;
47737;SDS011;33502;47.182;27.506;2023-02-22T17:17:53;26.70;;;13.50;;
47737;SDS011;33502;47.182;27.506;2023-02-22T17:20:20;31.98;;;18.75;;
47737;SDS011;33502;47.182;27.506;2023-02-22T17:22:56;28.52;;;16.90;;
47737;SDS011;33502;47.182;27.506;2023-02-22T17:25:32;23.27;;;14.50;;
47737;SDS011;33502;47.182;27.506;2023-02-22T17:28:01;25.45;;;13.85;;
47737;SDS011;33502;47.182;27.506;2023-02-22T17:30:27;19.85;;;12.13;;
47737;SDS011;33502;47.182;27.506;2023-02-22T17:32:52;23.17;;;11.05;;
47737;SDS011;33502;47.182;27.506;2023-02-22T17:35:28;21.08;;;13.20;;